Time;durP1;ratioP1;P1;durP2;ratioP2;P2;SDS_P1;SDS_P2;PMS_P1;PMS_P2;Temp;Humidity;BMP_temperature;BMP_pressure;BME280_temperature;BME280_humidity;BME280_pressure;Samples;Min_cycle;Max_cycle;Signal;HPM_P1;HPM_P2
2022/08/12 00:43:27;;;;;;;8.80;7.07;;;;;;;21.58;48.56;101829.69;5039940;28;20506;-63
2022/08/12 00:48:38;;;;;;;7.38;6.63;;;;;;;21.46;48.48;101832.38;5050783;28;20044;-63
2022/08/12 00:51:06;;;;;;;9.10;6.53;;;;;;;21.37;48.68;101826.22;5033092;28;20033;-63
2022/08/12 00:53:32;;;;;;;7.77;6.60;;;;;;;21.34;48.60;101830.69;5050910;28;20226;-63
2022/08/12 00:55:59;;;;;;;8.23;6.65;;;;;;;21.31;48.12;101830.72;5050169;28;20033;-63
2022/08/12 00:58:28;;;;;;;8.40;6.65;;;;;;;21.26;48.89;101822.78;5049314;28;20115;-63
2022/08/12 01:01:05;;;;;;;8.90;6.30;;;;;;;21.27;48.68;101829.81;5044165;28;20023;-63
2022/08/12 01:11:52;;;;;;;10.55;6.07;;;;;;;21.18;48.47;101825.44;5039518;28;20105;-63
2022/08/12 01:14:22;;;;;;;11.00;6.18;;;;;;;21.15;49.35;101820.16;5039125;28;20044;-63
2022/08/12 01:16:48;;;;;;;6.60;5.90;;;;;;;21.12;49.20;101822.84;5045532;28;20730;-63
2022/08/12 01:19:16;;;;;;;10.85;5.97;;;;;;;21.08;48.77;101812.25;5046916;28;20128;-63
2022/08/12 01:22:11;;;;;;;8.20;6.25;;;;;;;21.11;48.48;101820.19;5046690;28;20032;-63
2022/08/12 01:24:49;;;;;;;7.72;5.85;;;;;;;21.06;49.40;101816.66;5045771;28;20040;-63
2022/08/12 01:27:18;;;;;;;9.85;6.47;;;;;;;21.04;49.36;101815.81;5040409;28;20025;-64
2022/08/12 01:29:47;;;;;;;7.30;5.65;;;;;;;21.05;49.09;101813.16;5050449;28;20492;-64
2022/08/12 01:32:14;;;;;;;8.05;5.93;;;;;;;21.02;49.29;101814.03;5043169;28;20028;-63
2022/08/12 01:35:14;;;;;;;8.68;5.90;;;;;;;21.00;49.25;101810.53;5046826;28;20402;-63
2022/08/12 01:37:56;;;;;;;9.05;6.10;;;;;;;20.95;49.27;101817.59;5007853;28;20110;-63
2022/08/12 01:40:29;;;;;;;6.93;5.85;;;;;;;20.87;49.71;101813.22;5047560;28;20056;-63
2022/08/12 01:43:04;;;;;;;7.25;5.63;;;;;;;20.84;49.78;101822.06;5049621;28;20032;-63
2022/08/12 01:45:33;;;;;;;7.75;6.10;;;;;;;20.82;49.62;101815.91;5034978;28;20037;-64
2022/08/12 01:48:13;;;;;;;8.13;5.85;;;;;;;20.81;49.28;101819.41;5046473;28;20043;-64
2022/08/12 01:51:12;;;;;;;7.60;5.40;;;;;;;20.78;49.31;101812.38;5044744;28;20028;-63
2022/08/12 01:54:04;;;;;;;9.60;5.88;;;;;;;20.77;49.11;101815.00;5049685;28;20025;-63
2022/08/12 01:56:40;;;;;;;7.50;5.80;;;;;;;20.71;49.78;101818.59;5042702;28;20552;-63
2022/08/12 02:01:55;;;;;;;8.00;5.60;;;;;;;20.59;50.32;101808.84;5044409;28;20113;-63
2022/08/12 02:13:45;;;;;;;7.30;5.80;;;;;;;20.51;49.45;101810.66;5046594;28;20063;-63
2022/08/12 02:16:44;;;;;;;8.82;5.78;;;;;;;20.47;49.63;101803.59;5046021;28;20074;-61
2022/08/12 02:19:20;;;;;;;6.78;5.00;;;;;;;20.47;50.19;101807.13;5041565;28;20510;-63
2022/08/12 02:21:55;;;;;;;7.78;5.75;;;;;;;20.44;50.98;101811.56;5046017;28;20536;-64
2022/08/12 02:24:22;;;;;;;6.80;5.35;;;;;;;20.39;51.25;101808.03;5035783;28;20092;-64
2022/08/12 02:26:49;;;;;;;9.38;5.45;;;;;;;20.35;50.63;101808.91;5042814;28;20121;-63
2022/08/12 02:29:14;;;;;;;7.60;5.63;;;;;;;20.35;51.00;101803.63;5029634;28;20480;-64
2022/08/12 02:31:45;;;;;;;7.47;5.40;;;;;;;20.27;51.58;101801.84;5047001;28;20045;-64
2022/08/12 02:34:13;;;;;;;7.45;5.55;;;;;;;20.26;51.53;101799.22;5042412;28;20082;-64
2022/08/12 02:36:39;;;;;;;7.30;5.47;;;;;;;20.24;51.78;101801.00;5040889;28;20021;-63
2022/08/12 02:39:08;;;;;;;7.00;5.50;;;;;;;20.20;51.52;101796.59;5047816;28;20510;-63
2022/08/12 02:41:41;;;;;;;7.15;5.43;;;;;;;20.15;51.63;101794.81;5047504;28;20044;-63
2022/08/12 02:44:08;;;;;;;7.20;6.22;;;;;;;20.13;51.93;101801.00;5040418;28;20041;-63
2022/08/12 02:46:35;;;;;;;8.38;5.93;;;;;;;20.09;51.35;101799.25;5048611;28;20040;-63
2022/08/12 02:49:13;;;;;;;9.35;6.40;;;;;;;20.07;51.27;101796.59;5048672;28;20033;-63
2022/08/12 02:51:41;;;;;;;10.75;6.82;;;;;;;20.02;51.39;101794.84;5040508;28;20021;-63
2022/08/12 02:54:07;;;;;;;10.05;6.80;;;;;;;19.98;51.96;101792.19;5046712;28;20112;-63
2022/08/12 02:56:39;;;;;;;7.78;6.35;;;;;;;19.94;52.08;101801.03;5027467;28;20120;-63
2022/08/12 02:59:10;;;;;;;9.52;6.57;;;;;;;19.92;52.23;101800.13;5031251;28;20021;-63
2022/08/12 03:01:42;;;;;;;8.23;6.60;;;;;;;19.89;52.66;101809.84;5046808;28;20044;-63
2022/08/12 03:04:12;;;;;;;7.95;6.60;;;;;;;19.89;51.92;101797.47;5049473;28;20024;-63
2022/08/12 03:06:42;;;;;;;9.73;7.50;;;;;;;19.83;52.67;101802.78;5050917;28;20387;-63
2022/08/12 03:09:13;;;;;;;9.43;7.35;;;;;;;19.78;52.89;101792.22;5046734;28;20032;-63
2022/08/12 03:11:44;;;;;;;8.43;7.00;;;;;;;19.76;53.37;101799.19;5047886;28;20128;-63
2022/08/12 03:14:13;;;;;;;8.95;6.95;;;;;;;19.72;52.94;101793.91;5049958;28;20025;-63
2022/08/12 03:16:39;;;;;;;9.18;7.07;;;;;;;19.73;52.80;101795.69;5046590;28;20025;-63
2022/08/12 03:19:06;;;;;;;8.32;6.63;;;;;;;19.71;53.22;101792.16;5041401;28;20116;-62
2022/08/12 03:21:34;;;;;;;9.77;7.47;;;;;;;19.66;53.55;101789.50;5046184;28;20496;-63
2022/08/12 03:24:01;;;;;;;8.95;7.05;;;;;;;19.61;53.53;101788.59;5051401;28;20029;-63
2022/08/12 03:26:28;;;;;;;10.07;6.70;;;;;;;19.58;53.38;101781.56;5032445;28;20025;-63
2022/08/12 03:28:57;;;;;;;8.45;6.72;;;;;;;19.55;53.54;101784.22;5050286;28;20056;-63
2022/08/12 03:31:31;;;;;;;9.68;7.00;;;;;;;19.56;53.66;101788.59;5049714;28;20029;-63
2022/08/12 03:33:59;;;;;;;9.40;7.05;;;;;;;19.52;53.98;101781.53;5047235;28;20043;-63
2022/08/12 03:36:27;;;;;;;8.90;7.33;;;;;;;19.51;53.83;101785.09;5050783;28;20037;-63
2022/08/12 03:39:40;;;;;;;7.45;6.63;;;;;;;19.48;53.88;101777.16;5050815;28;20283;-63
2022/08/12 03:41:50;;;;;;;10.18;7.38;;;;;;;19.48;53.81;101774.50;5035770;28;20523;-63
2022/08/12 04:01:24;;;;;;;11.82;6.93;;;;;;;19.17;55.51;101792.91;5047771;28;20201;-61
2022/08/12 04:03:53;;;;;;;;;;;;;;;19.25;53.25;101792.97;5041976;28;20594;-62
2022/08/12 04:06:27;;;;;;;11.57;7.72;;;;;;;19.17;55.35;101798.19;5048329;28;19916;-62
2022/08/12 04:08:57;;;;;;;10.05;8.07;;;;;;;19.11;55.35;101798.19;5050516;28;20024;-63
2022/08/12 04:14:19;;;;;;;9.40;7.93;;;;;;;19.02;55.55;101803.44;5048068;28;20043;-63
2022/08/12 04:16:47;;;;;;;9.07;7.57;;;;;;;18.96;56.22;101801.66;5049048;28;20070;-62
2022/08/12 04:19:14;;;;;;;9.63;7.50;;;;;;;18.92;55.77;101795.47;5038819;28;20056;-63
2022/08/12 04:21:39;;;;;;;10.75;7.88;;;;;;;18.93;55.90;101805.16;5038575;28;20025;-63
2022/08/12 04:24:05;;;;;;;9.73;7.95;;;;;;;18.89;56.55;101803.38;5048853;28;20386;-62
2022/08/12 04:26:31;;;;;;;10.88;8.20;;;;;;;18.87;55.72;101802.50;5047720;28;20506;-62
2022/08/12 04:28:58;;;;;;;12.18;8.77;;;;;;;18.85;56.06;101800.69;5050227;28;20102;-62
2022/08/12 04:31:42;;;;;;;11.55;8.85;;;;;;;18.84;55.63;101798.91;5035727;28;20132;-62
2022/08/12 04:34:10;;;;;;;13.20;8.43;;;;;;;18.80;56.65;101799.78;5044357;28;20020;-63
2022/08/12 04:36:38;;;;;;;12.13;8.27;;;;;;;18.79;56.60;101801.53;5041468;28;20029;-62
2022/08/12 04:39:05;;;;;;;11.88;9.15;;;;;;;18.72;56.95;101797.97;5052022;28;20051;-62
2022/08/12 04:41:31;;;;;;;13.00;8.90;;;;;;;18.73;57.13;101798.88;5044894;28;20052;-62
2022/08/12 04:43:57;;;;;;;13.07;10.05;;;;;;;18.70;57.23;101802.38;5042142;28;20021;-62
2022/08/12 04:46:24;;;;;;;11.73;9.02;;;;;;;18.70;56.89;101802.38;5044026;28;20128;-62
2022/08/12 04:48:51;;;;;;;12.88;10.10;;;;;;;18.69;56.41;101797.97;5047107;28;20036;-62
2022/08/12 04:51:18;;;;;;;14.77;9.85;;;;;;;18.70;57.57;101801.50;5050269;28;20033;-62
2022/08/12 04:53:46;;;;;;;11.63;9.02;;;;;;;18.68;57.27;101801.47;5047481;28;20027;-62
2022/08/12 04:56:12;;;;;;;10.43;8.95;;;;;;;18.68;57.33;101801.47;5046030;28;20053;-62
2022/08/12 04:58:38;;;;;;;16.45;9.93;;;;;;;18.65;57.62;101804.09;5047433;28;20072;-62
2022/08/12 05:01:05;;;;;;;12.90;9.35;;;;;;;18.66;57.85;101803.25;5049757;28;20044;-62
2022/08/12 05:03:30;;;;;;;11.25;9.27;;;;;;;18.65;58.41;101800.59;5045888;28;20025;-62
2022/08/12 05:05:56;;;;;;;21.02;10.50;;;;;;;18.65;58.54;101797.94;5048523;28;20029;-62
2022/08/12 05:08:22;;;;;;;14.15;10.63;;;;;;;18.63;58.49;101797.06;5048076;28;20037;-64
2022/08/12 05:10:49;;;;;;;14.73;10.50;;;;;;;18.63;58.42;101805.00;5048990;28;20477;-62
2022/08/12 05:13:26;;;;;;;14.05;9.95;;;;;;;18.65;57.48;101792.66;5045444;28;20040;-63
2022/08/12 05:15:51;;;;;;;12.70;10.70;;;;;;;18.61;59.10;101799.72;5048164;28;20024;-63
2022/08/12 05:18:18;;;;;;;12.60;10.13;;;;;;;18.62;58.49;101800.56;5042083;28;20025;-63
2022/08/12 05:20:43;;;;;;;14.00;11.10;;;;;;;18.61;58.92;101797.06;5047917;28;20032;-63
2022/08/12 05:23:17;;;;;;;13.63;11.30;;;;;;;18.60;59.12;101792.66;5047930;28;20021;-63
2022/08/12 05:25:45;;;;;;;13.50;11.27;;;;;;;18.60;58.46;101796.16;5048208;28;20033;-63
2022/08/12 05:28:15;;;;;;;15.55;12.35;;;;;;;18.60;59.89;101808.50;5048631;28;20508;-63
2022/08/12 05:30:42;;;;;;;13.95;12.05;;;;;;;18.63;59.31;101818.19;5047030;28;20029;-63
2022/08/12 05:33:09;;;;;;;15.05;12.68;;;;;;;18.59;59.69;101807.59;5045281;28;20040;-63
2022/08/12 05:35:41;;;;;;;13.05;11.52;;;;;;;18.62;59.56;101808.50;5048022;28;20029;-63
2022/08/12 05:40:57;;;;;;;15.10;13.10;;;;;;;18.64;60.10;101812.91;5041258;28;20573;-63
2022/08/12 05:43:23;;;;;;;15.32;13.63;;;;;;;18.65;59.83;101819.06;5041158;28;20025;-63
2022/08/12 05:45:49;;;;;;;15.48;13.82;;;;;;;18.67;59.32;101817.31;5042609;28;20350;-63
2022/08/12 05:48:14;;;;;;;17.20;14.40;;;;;;;18.66;60.03;101820.84;5043573;28;20636;-63
2022/08/12 05:50:41;;;;;;;17.00;13.77;;;;;;;18.68;59.92;101821.72;5044223;28;20036;-63
2022/08/12 05:53:06;;;;;;;16.73;13.48;;;;;;;18.69;60.42;101827.00;5040950;28;20044;-63
2022/08/12 05:55:33;;;;;;;21.63;14.30;;;;;;;18.66;61.66;101820.84;5040233;28;20033;-63
2022/08/12 05:58:00;;;;;;;22.67;13.60;;;;;;;18.66;61.45;101820.84;5036918;28;20095;-63
2022/08/12 06:00:28;;;;;;;21.02;13.57;;;;;;;18.66;61.82;101821.72;5026359;28;20496;-63
2022/08/12 06:03:01;;;;;;;16.25;12.80;;;;;;;18.69;61.81;101826.13;5041166;28;20412;-63
2022/08/12 06:05:28;;;;;;;18.55;12.70;;;;;;;18.71;62.08;101827.91;5044605;28;20499;-63
2022/08/12 06:07:56;;;;;;;17.52;12.18;;;;;;;18.75;61.81;101834.97;5042735;28;20491;-63
2022/08/12 06:10:22;;;;;;;16.07;12.27;;;;;;;18.79;62.04;101833.22;5043821;28;20044;-63
2022/08/12 06:12:48;;;;;;;19.23;12.88;;;;;;;18.80;62.70;101834.09;5041572;28;20017;-65
2022/08/12 06:15:19;;;;;;;14.85;12.02;;;;;;;18.84;62.26;101830.59;5041575;28;20457;-64
2022/08/12 06:17:45;;;;;;;17.52;13.20;;;;;;;18.86;62.03;101828.88;5043952;28;20036;-63
2022/08/12 06:20:15;;;;;;;13.15;11.85;;;;;;;18.89;62.34;101831.56;5038416;28;20029;-63
2022/08/12 06:22:42;;;;;;;14.38;12.88;;;;;;;18.91;62.77;101832.44;5044438;28;20208;-63
2022/08/12 06:25:08;;;;;;;16.80;13.40;;;;;;;18.97;62.05;101831.59;5042878;28;20503;-63
2022/08/12 06:27:41;;;;;;;17.83;13.70;;;;;;;19.01;62.15;101828.09;5042835;28;20029;-63
2022/08/12 06:30:07;;;;;;;15.25;12.57;;;;;;;19.05;61.51;101827.22;5026873;28;20100;-63
2022/08/12 06:32:32;;;;;;;16.42;13.32;;;;;;;19.10;61.52;101828.13;5042140;28;20049;-63
2022/08/12 06:34:58;;;;;;;15.23;13.73;;;;;;;19.16;62.55;101824.63;5043384;28;20063;-63
2022/08/12 06:37:23;;;;;;;16.85;13.85;;;;;;;19.21;61.16;101828.19;5042201;28;20037;-63
2022/08/12 06:39:49;;;;;;;15.98;14.38;;;;;;;19.28;60.98;101832.59;5043067;28;20025;-63
2022/08/12 06:44:58;;;;;;;15.48;13.25;;;;;;;19.42;60.57;101819.41;5038876;28;20096;-64
2022/08/12 06:47:23;;;;;;;16.70;13.43;;;;;;;19.49;61.00;101817.69;5038881;28;20025;-63
2022/08/12 06:49:49;;;;;;;16.15;12.68;;;;;;;19.56;59.69;101817.69;5039797;28;20029;-63
2022/08/12 06:52:16;;;;;;;13.80;11.40;;;;;;;19.64;59.19;101821.22;5041810;28;20400;-62
2022/08/12 06:54:43;;;;;;;13.43;10.85;;;;;;;19.70;60.05;101807.13;5045854;28;20381;-63
2022/08/12 06:57:08;;;;;;;13.98;11.20;;;;;;;19.78;59.96;101807.13;5021009;28;20079;-64
2022/08/12 06:59:34;;;;;;;13.13;10.75;;;;;;;19.86;59.16;101808.06;5045767;28;20029;-62
2022/08/12 07:02:00;;;;;;;14.68;11.15;;;;;;;19.91;58.27;101806.28;5049182;28;20029;-61
2022/08/12 07:04:25;;;;;;;14.25;10.65;;;;;;;20.00;58.79;101812.47;5048199;28;20056;-61
2022/08/12 07:06:51;;;;;;;13.38;11.35;;;;;;;20.08;57.87;101805.44;5048505;28;20013;-62
2022/08/12 07:09:16;;;;;;;15.15;11.27;;;;;;;20.13;59.02;101806.28;5040187;28;20458;-62
2022/08/12 07:11:43;;;;;;;11.90;10.60;;;;;;;20.21;58.74;101808.94;5038443;28;20022;-62
2022/08/12 07:14:08;;;;;;;13.32;11.05;;;;;;;20.31;59.16;101808.91;5039864;28;20033;-62
2022/08/12 07:16:52;;;;;;;13.05;10.52;;;;;;;20.37;58.36;101802.72;5039395;28;20024;-62
2022/08/12 07:19:19;;;;;;;14.02;10.65;;;;;;;20.47;58.25;101808.91;5040028;28;20036;-62
2022/08/12 07:21:45;;;;;;;14.27;11.38;;;;;;;20.53;57.57;101803.59;5038455;28;20044;-62
2022/08/12 07:24:10;;;;;;;12.70;11.15;;;;;;;20.60;58.82;101813.28;5041522;28;20036;-61
2022/08/12 07:26:39;;;;;;;12.93;10.57;;;;;;;20.67;58.34;101819.47;5039345;28;20025;-61
2022/08/12 07:29:04;;;;;;;18.23;13.63;;;;;;;20.78;57.20;101819.44;5045480;28;20554;-61
2022/08/12 07:31:30;;;;;;;14.90;12.60;;;;;;;20.86;57.81;101817.66;5039658;28;20028;-61
2022/08/12 07:33:55;;;;;;;14.80;12.90;;;;;;;20.96;58.42;101819.38;5040747;28;20108;-61
2022/08/12 07:36:21;;;;;;;12.13;10.93;;;;;;;21.06;56.56;101819.31;5039896;28;20060;-62
2022/08/12 07:38:47;;;;;;;12.82;9.30;;;;;;;21.15;55.67;101820.16;5041548;28;20029;-61
2022/08/12 07:41:13;;;;;;;13.10;9.82;;;;;;;21.22;56.89;101823.69;5037595;28;20381;-61
2022/08/12 07:43:49;;;;;;;14.70;10.07;;;;;;;21.31;56.56;101826.28;5041574;28;20116;-61
2022/08/12 07:46:19;;;;;;;12.25;9.90;;;;;;;21.41;57.24;101831.53;5044433;28;20167;-61
2022/08/12 07:48:47;;;;;;;12.60;10.30;;;;;;;21.50;54.29;101829.69;5039583;28;20021;-61
2022/08/12 07:51:14;;;;;;;11.43;9.02;;;;;;;21.57;54.57;101822.63;5041248;28;20029;-61
2022/08/12 07:53:39;;;;;;;14.25;9.10;;;;;;;21.68;53.78;101826.09;5039637;28;20037;-61
2022/08/12 07:56:10;;;;;;;11.65;9.63;;;;;;;21.75;54.04;101824.25;5041895;28;20036;-60
2022/08/12 07:58:38;;;;;;;14.88;9.45;;;;;;;21.88;52.97;101825.94;5043960;28;20109;-61
2022/08/12 08:01:14;;;;;;;11.27;9.53;;;;;;;21.96;52.21;101820.56;5040185;28;20054;-64
2022/08/12 08:04:54;;;;;;;11.45;9.13;;;;;;;22.04;52.75;101824.06;5024237;28;20303;-64
2022/08/12 08:06:30;;;;;;;12.63;9.15;;;;;;;22.13;51.97;101824.84;5023320;28;20078;-60
2022/08/12 08:09:00;;;;;;;13.50;8.68;;;;;;;22.22;53.23;101825.66;5043369;28;20439;-59
2022/08/12 08:14:09;;;;;;;11.15;7.78;;;;;;;22.34;53.55;101830.00;5043167;28;20047;-61
2022/08/12 08:16:39;;;;;;;13.38;9.10;;;;;;;22.41;52.08;101828.16;5042237;28;20025;-61
2022/08/12 08:19:18;;;;;;;12.32;9.02;;;;;;;22.50;53.80;101838.69;5036960;28;20036;-59
2022/08/12 08:21:43;;;;;;;13.13;9.32;;;;;;;22.63;51.22;101833.25;5041642;28;20068;-60
2022/08/12 08:24:15;;;;;;;14.15;9.20;;;;;;;22.75;51.76;101841.97;5039568;28;20112;-60
2022/08/12 08:26:46;;;;;;;11.35;8.38;;;;;;;22.91;50.20;101844.44;5035457;28;20048;-58
2022/08/12 08:29:12;;;;;;;11.82;8.40;;;;;;;23.00;49.82;101844.34;5040854;28;20111;-58
2022/08/12 08:31:42;;;;;;;12.02;8.77;;;;;;;23.14;49.86;101840.66;5040349;28;20030;-59
2022/08/12 08:34:12;;;;;;;11.73;8.95;;;;;;;23.26;48.64;101840.50;5043664;28;20039;-60
2022/08/12 08:36:38;;;;;;;10.75;8.25;;;;;;;23.36;49.82;101835.91;5041475;28;20040;-60
2022/08/12 08:39:04;;;;;;;12.85;8.38;;;;;;;23.48;49.66;101829.53;5048214;28;20500;-60
2022/08/12 08:44:13;;;;;;;13.98;8.10;;;;;;;23.69;48.33;101837.22;5045887;28;20458;-60
2022/08/12 08:46:39;;;;;;;10.95;7.88;;;;;;;23.73;47.67;101825.63;5042064;28;20029;-61
2022/08/12 08:49:05;;;;;;;10.00;8.38;;;;;;;23.77;47.31;101837.97;5045581;28;20021;-61
2022/08/12 08:51:31;;;;;;;10.38;8.30;;;;;;;23.91;46.59;101839.56;5044100;28;20396;-60
2022/08/12 08:53:56;;;;;;;10.75;7.63;;;;;;;24.01;48.56;101834.97;5045695;28;20091;-61
2022/08/12 08:56:22;;;;;;;12.10;8.15;;;;;;;24.16;45.97;101828.50;5045463;28;20028;-61
2022/08/12 08:58:48;;;;;;;11.18;7.80;;;;;;;24.29;45.93;101832.72;5044058;28;20080;-61
2022/08/12 09:01:20;;;;;;;10.25;7.60;;;;;;;24.41;45.36;101828.97;5040863;28;20496;-61
2022/08/12 09:03:47;;;;;;;12.50;7.70;;;;;;;24.58;45.02;101828.66;5036033;28;20033;-61
2022/08/12 09:06:13;;;;;;;9.50;7.45;;;;;;;24.64;43.74;101825.88;5043600;28;20088;-61
2022/08/12 09:08:40;;;;;;;10.63;7.70;;;;;;;24.75;44.44;101823.91;5023730;28;20549;-61
2022/08/12 09:13:50;;;;;;;8.40;6.53;;;;;;;24.90;43.56;101821.81;5038241;28;20044;-62
2022/08/12 09:16:16;;;;;;;8.57;6.70;;;;;;;25.00;42.00;101823.38;5043068;28;20036;-61
2022/08/12 09:18:42;;;;;;;9.27;5.93;;;;;;;25.15;40.80;101827.50;5043730;28;20021;-61
2022/08/12 09:21:08;;;;;;;10.10;5.95;;;;;;;25.29;40.38;101824.53;5045018;28;20423;-61
2022/08/12 09:23:35;;;;;;;11.18;5.55;;;;;;;25.45;39.98;101820.63;5039209;28;20499;-61
2022/08/12 09:26:01;;;;;;;8.25;5.68;;;;;;;25.61;39.15;101817.63;5046110;28;20036;-61
2022/08/12 09:28:31;;;;;;;8.20;5.78;;;;;;;25.72;38.94;101818.22;5042828;28;20032;-61
2022/08/12 09:30:58;;;;;;;7.45;5.90;;;;;;;25.81;40.20;101819.78;5043085;28;20032;-61
2022/08/12 09:33:32;;;;;;;6.13;5.43;;;;;;;26.00;39.63;101817.56;5038641;28;20200;-61
2022/08/12 09:36:04;;;;;;;7.22;5.75;;;;;;;26.04;39.14;101813.88;5044471;28;20033;-61
2022/08/12 09:38:29;;;;;;;9.20;6.45;;;;;;;26.15;38.37;101811.81;5047789;28;20464;-61
2022/08/12 09:40:56;;;;;;;6.65;5.65;;;;;;;26.28;38.78;101809.69;5044730;28;20535;-61
2022/08/12 09:46:06;;;;;;;8.30;5.80;;;;;;;26.60;37.28;101810.59;5038426;28;20051;-61
2022/08/12 09:48:33;;;;;;;10.55;6.07;;;;;;;26.64;38.36;101812.28;5038586;28;20028;-61
2022/08/12 09:50:59;;;;;;;11.27;5.78;;;;;;;26.82;35.84;101802.88;5037972;28;20396;-61
2022/08/12 09:53:25;;;;;;;9.00;5.78;;;;;;;26.91;35.77;101809.78;5023297;28;20033;-61
2022/08/12 09:55:54;;;;;;;8.15;5.80;;;;;;;26.98;35.52;101803.31;5039077;28;20123;-61
2022/08/12 09:58:28;;;;;;;8.00;5.88;;;;;;;27.10;35.20;101806.53;5020751;28;20028;-61
2022/08/12 10:01:05;;;;;;;9.45;5.65;;;;;;;27.21;36.09;101799.94;5039548;28;20434;-61
2022/08/12 10:03:32;;;;;;;9.55;5.95;;;;;;;27.28;36.33;101805.09;5035542;28;20028;-61
2022/08/12 10:05:59;;;;;;;8.50;5.50;;;;;;;27.42;35.26;101792.19;5036630;28;20326;-61
2022/08/12 10:08:29;;;;;;;7.55;5.50;;;;;;;27.48;34.79;101781.28;5040798;28;20072;-61
2022/08/12 10:13:40;;;;;;;8.15;5.43;;;;;;;27.63;35.86;101776.34;5045770;28;20675;-61
2022/08/12 10:16:31;;;;;;;7.68;5.70;;;;;;;27.77;36.03;101777.63;5047979;28;20396;-62
2022/08/12 10:19:01;;;;;;;7.75;5.57;;;;;;;27.96;34.58;101781.50;5037638;28;20033;-62
2022/08/12 10:21:35;;;;;;;7.63;5.03;;;;;;;28.04;34.44;101782.13;5039500;28;20017;-61
2022/08/12 10:24:07;;;;;;;6.72;5.50;;;;;;;28.08;33.55;101776.63;5039017;28;20029;-62
2022/08/12 10:29:37;;;;;;;8.13;5.70;;;;;;;28.30;32.94;101772.28;5039964;28;20091;-62
2022/08/12 10:32:16;;;;;;;7.05;5.53;;;;;;;28.44;32.46;101764.63;5037492;28;20052;-61
2022/08/12 10:34:41;;;;;;;11.75;6.28;;;;;;;28.55;32.77;101774.97;5037289;28;20068;-61
2022/08/12 10:37:07;;;;;;;7.85;5.65;;;;;;;28.66;32.19;101753.13;5035546;28;20152;-61
2022/08/12 10:39:36;;;;;;;6.20;5.53;;;;;;;28.73;31.63;101757.31;5035434;28;20028;-62
2022/08/12 10:44:51;;;;;;;6.38;5.38;;;;;;;28.92;31.86;101758.38;5036925;28;20051;-61
2022/08/12 10:47:19;;;;;;;8.10;6.15;;;;;;;28.99;31.33;101758.13;5036495;28;20025;-60
2022/08/12 10:49:46;;;;;;;7.25;5.40;;;;;;;29.06;30.71;101749.75;5013316;28;20099;-60
2022/08/12 10:52:11;;;;;;;8.02;5.78;;;;;;;29.13;30.55;101740.53;5035781;28;20029;-62
2022/08/12 10:54:38;;;;;;;7.78;5.60;;;;;;;29.20;31.81;101746.53;5037045;28;20133;-60
2022/08/12 10:57:04;;;;;;;7.95;5.93;;;;;;;29.28;30.53;101736.38;5038172;28;20033;-62
2022/08/12 10:59:30;;;;;;;8.20;5.82;;;;;;;29.36;30.36;101740.53;5034111;28;20063;-62
2022/08/12 11:01:56;;;;;;;7.72;5.82;;;;;;;29.37;30.77;101729.75;5035335;28;20029;-62
2022/08/12 11:04:23;;;;;;;7.13;5.68;;;;;;;29.46;30.96;101736.53;5039970;28;20047;-62
2022/08/12 11:06:49;;;;;;;8.93;5.97;;;;;;;29.54;30.58;101726.34;5039682;28;20648;-61
2022/08/12 11:09:20;;;;;;;8.73;5.85;;;;;;;29.64;31.79;101722.34;5042192;28;20519;-60
2022/08/12 11:11:47;;;;;;;8.15;5.97;;;;;;;29.77;31.37;101727.19;5042719;28;20683;-63
2022/08/12 11:14:27;;;;;;;8.15;6.00;;;;;;;29.88;30.91;101722.25;5042781;28;20025;-63
2022/08/12 11:16:59;;;;;;;6.63;5.90;;;;;;;30.03;30.53;101719.84;5041364;28;20041;-64
2022/08/12 11:19:26;;;;;;;8.68;5.55;;;;;;;30.11;29.69;101721.25;5027398;28;20028;-64
2022/08/12 11:21:54;;;;;;;8.65;5.85;;;;;;;30.25;29.07;101709.00;5046761;28;20028;-65
2022/08/12 11:24:20;;;;;;;9.53;5.40;;;;;;;30.28;28.46;101715.09;5048508;28;20441;-65
2022/08/12 11:26:45;;;;;;;10.45;6.10;;;;;;;30.30;28.26;101707.84;5042590;28;20116;-61
2022/08/12 11:29:11;;;;;;;6.38;5.57;;;;;;;30.42;29.31;101709.13;5046822;28;20528;-61
2022/08/12 11:31:36;;;;;;;10.10;5.82;;;;;;;30.48;29.12;101711.50;5044199;28;20025;-62
2022/08/12 11:34:02;;;;;;;7.47;5.90;;;;;;;30.56;28.45;101700.41;5041993;28;20037;-62
2022/08/12 11:36:28;;;;;;;7.67;5.63;;;;;;;30.60;28.77;101698.44;5045552;28;20031;-62
2022/08/12 11:38:54;;;;;;;8.15;5.30;;;;;;;30.65;27.48;101702.66;5039005;28;20294;-62
2022/08/12 11:41:19;;;;;;;6.55;5.75;;;;;;;30.72;28.73;101707.75;5041141;28;20085;-62
2022/08/12 11:43:45;;;;;;;11.00;5.85;;;;;;;30.82;27.59;101703.66;5048692;28;20120;-62
2022/08/12 11:46:10;;;;;;;8.57;5.80;;;;;;;30.86;28.05;101691.81;5045963;28;20029;-61
2022/08/12 11:48:38;;;;;;;7.90;5.32;;;;;;;30.92;27.94;101690.63;5053016;28;20024;-62
2022/08/12 11:51:07;;;;;;;6.97;5.50;;;;;;;30.96;27.93;101679.63;5052836;28;20070;-62
2022/08/12 11:53:32;;;;;;;7.20;5.95;;;;;;;30.99;28.46;101679.47;5049382;28;20033;-62
2022/08/12 11:55:58;;;;;;;6.50;5.90;;;;;;;31.00;26.17;101681.25;5046422;28;20112;-62
2022/08/12 11:58:23;;;;;;;6.97;5.50;;;;;;;31.06;27.41;101682.78;5046240;28;20115;-62
2022/08/12 12:00:48;;;;;;;6.30;5.50;;;;;;;31.12;28.05;101669.00;5045649;28;20128;-61
2022/08/12 12:03:14;;;;;;;6.68;5.57;;;;;;;31.17;27.03;101671.50;5044870;28;20048;-61
2022/08/12 12:05:39;;;;;;;6.70;5.77;;;;;;;31.26;26.76;101673.72;5045691;28;20108;-64
2022/08/12 12:08:04;;;;;;;7.85;5.40;;;;;;;31.29;26.95;101659.22;5045393;28;20313;-63
2022/08/12 12:10:29;;;;;;;7.17;5.90;;;;;;;31.31;27.23;101660.88;5044818;28;20040;-63
2022/08/12 12:12:55;;;;;;;6.47;5.47;;;;;;;31.42;28.51;101662.16;5042730;28;20404;-64
2022/08/12 12:15:20;;;;;;;8.85;5.68;;;;;;;31.45;28.86;101656.63;5043865;28;21027;-64
2022/08/12 12:17:45;;;;;;;6.93;5.60;;;;;;;31.54;28.89;101669.59;5043503;28;20112;-64
2022/08/12 12:20:11;;;;;;;9.98;5.70;;;;;;;31.62;28.13;101662.03;5045200;28;20033;-63
2022/08/12 12:22:39;;;;;;;6.97;5.60;;;;;;;31.75;28.65;101655.97;5047400;28;20488;-64
2022/08/12 12:25:05;;;;;;;8.45;5.97;;;;;;;31.78;27.14;101651.31;5047092;28;20062;-64
2022/08/12 12:27:55;;;;;;;7.15;5.70;;;;;;;31.83;27.93;101660.00;5027739;28;20025;-64
2022/08/12 12:30:20;;;;;;;6.30;5.70;;;;;;;31.91;27.84;101654.22;5028901;28;20073;-65
2022/08/12 12:32:46;;;;;;;7.38;5.60;;;;;;;31.90;25.86;101650.63;5044735;28;20055;-64
2022/08/12 12:35:11;;;;;;;6.82;5.30;;;;;;;31.90;26.73;101645.25;5046511;28;20029;-64
2022/08/12 12:38:10;;;;;;;6.07;5.10;;;;;;;32.01;27.90;101646.50;5046113;28;20032;-64
2022/08/12 12:40:37;;;;;;;6.65;5.47;;;;;;;32.05;26.22;101648.06;4995598;28;20122;-65
2022/08/12 12:43:03;;;;;;;7.53;5.68;;;;;;;32.05;25.81;101646.25;5045574;28;20122;-64
2022/08/12 12:45:29;;;;;;;8.35;6.18;;;;;;;32.04;25.76;101649.03;5046265;28;20468;-64
2022/08/12 12:48:01;;;;;;;7.10;6.35;;;;;;;32.01;25.99;101644.69;5038635;28;20061;-64
2022/08/12 12:51:30;;;;;;;7.85;6.00;;;;;;;32.10;27.93;101639.72;5043464;28;20028;-64
2022/08/12 12:53:38;;;;;;;7.78;6.43;;;;;;;32.13;26.47;101636.91;5033541;28;20041;-64
2022/08/12 12:56:04;;;;;;;8.90;6.65;;;;;;;32.14;24.91;101641.34;5047795;28;20017;-64
2022/08/12 12:58:30;;;;;;;9.30;5.90;;;;;;;32.18;27.04;101630.31;5045796;28;20412;-64
2022/08/12 13:01:00;;;;;;;8.70;6.10;;;;;;;32.29;28.73;101628.84;5044244;28;20025;-64
2022/08/12 13:03:26;;;;;;;11.38;6.38;;;;;;;32.34;27.79;101621.34;5047865;28;20032;-64
2022/08/12 13:05:51;;;;;;;10.38;6.90;;;;;;;32.38;26.12;101618.38;5040602;28;20029;-63
2022/08/12 13:08:25;;;;;;;7.32;6.05;;;;;;;32.47;26.61;101614.31;5041295;28;20185;-64
2022/08/12 13:10:59;;;;;;;7.38;6.68;;;;;;;32.50;26.17;101621.34;5050745;28;20025;-64
2022/08/12 13:13:26;;;;;;;8.05;7.13;;;;;;;32.52;26.32;101617.63;5046878;28;20050;-64
2022/08/12 13:15:52;;;;;;;10.93;7.35;;;;;;;32.50;25.57;101614.16;5045670;28;20029;-64
2022/08/12 13:18:18;;;;;;;7.63;6.03;;;;;;;32.53;26.73;101613.09;5041933;28;20560;-64